createdAt,value
2016-09-26T00:00:38.867Z,0
2016-09-26T00:01:38.841Z,0
2016-09-26T00:02:38.819Z,0
2016-09-26T00:03:38.797Z,0
2016-09-26T00:04:38.769Z,0
2016-09-26T00:05:38.756Z,0
2016-09-26T00:06:38.734Z,0
2016-09-26T00:07:38.726Z,0
2016-09-26T00:08:38.697Z,0
2016-09-26T00:09:38.668Z,0
2016-09-26T00:10:38.666Z,0
2016-09-26T00:11:38.625Z,0
2016-09-26T00:12:38.629Z,0
2016-09-26T00:13:38.582Z,0
2016-09-26T00:14:38.565Z,0
2016-09-26T00:15:38.537Z,0
2016-09-26T00:16:38.515Z,0
2016-09-26T00:17:38.487Z,0
2016-09-26T00:18:38.472Z,0
2016-09-26T00:19:38.447Z,0
2016-09-26T00:20:38.429Z,0
2016-09-26T00:21:38.408Z,0
2016-09-26T00:22:38.378Z,0
2016-09-26T00:23:38.363Z,0
2016-09-26T00:24:38.339Z,0
2016-09-26T00:25:38.319Z,0
2016-09-26T00:26:38.596Z,0
2016-09-26T00:27:38.271Z,0
2016-09-26T00:28:38.254Z,0
2016-09-26T00:29:38.232Z,0
2016-09-26T00:30:38.206Z,0
2016-09-26T00:31:38.184Z,0
2016-09-26T00:32:38.170Z,0
2016-09-26T00:33:38.143Z,0
2016-09-26T00:34:38.117Z,0
2016-09-26T00:35:38.104Z,0
2016-09-26T00:36:38.083Z,0
2016-09-26T00:37:38.059Z,0
2016-09-26T00:38:38.050Z,0
2016-09-26T00:39:38.010Z,0
2016-09-26T00:40:37.989Z,0
2016-09-26T00:41:37.966Z,0
2016-09-26T00:42:37.945Z,0
2016-09-26T00:43:37.925Z,0
2016-09-26T00:44:37.905Z,0
2016-09-26T00:45:37.879Z,0
2016-09-26T00:46:37.853Z,0
2016-09-26T00:47:37.849Z,0
2016-09-26T00:48:37.808Z,0
2016-09-26T00:49:37.789Z,0
2016-09-26T00:50:37.779Z,0
2016-09-26T00:51:37.746Z,0
2016-09-26T00:52:37.726Z,0
2016-09-26T00:53:37.711Z,0
2016-09-26T00:54:37.686Z,0
2016-09-26T00:55:37.661Z,0
2016-09-26T00:56:37.636Z,0
2016-09-26T00:57:37.619Z,0
2016-09-26T00:58:37.593Z,0
2016-09-26T00:59:37.580Z,0
2016-09-26T01:00:37.547Z,0
2016-09-26T01:01:37.533Z,0
2016-09-26T01:02:37.517Z,0
2016-09-26T01:03:37.488Z,0
2016-09-26T01:04:37.468Z,0
2016-09-26T01:05:37.442Z,0
2016-09-26T01:06:37.420Z,0
2016-09-26T01:07:37.413Z,0
2016-09-26T01:08:37.378Z,0
2016-09-26T01:09:37.347Z,0
2016-09-26T01:10:37.332Z,0
2016-09-26T01:11:37.310Z,0
2016-09-26T01:12:37.286Z,0
2016-09-26T01:13:37.268Z,0
2016-09-26T01:14:37.237Z,0
2016-09-26T01:15:37.223Z,0
2016-09-26T01:16:37.197Z,0
2016-09-26T01:17:37.178Z,0
2016-09-26T01:18:37.155Z,0
2016-09-26T01:19:37.163Z,0
2016-09-26T01:20:37.109Z,0
2016-09-26T01:21:37.085Z,0
2016-09-26T01:22:37.061Z,0
2016-09-26T01:23:37.046Z,0
2016-09-26T01:24:37.026Z,0
2016-09-26T01:25:37.001Z,0
2016-09-26T01:26:37.032Z,0
2016-09-26T01:27:36.954Z,0
2016-09-26T01:28:36.938Z,0
2016-09-26T01:29:36.912Z,0
2016-09-26T01:30:36.893Z,0
2016-09-26T01:31:36.875Z,0
2016-09-26T01:32:36.842Z,0
2016-09-26T01:33:36.825Z,0
2016-09-26T01:34:36.804Z,0
2016-09-26T01:35:36.774Z,0
2016-09-26T01:36:36.793Z,0
2016-09-26T01:37:36.737Z,0
2016-09-26T01:38:36.719Z,0
2016-09-26T01:39:36.689Z,0
2016-09-26T01:40:36.673Z,0
2016-09-26T01:41:36.660Z,0
2016-09-26T01:42:36.626Z,0
2016-09-26T01:43:36.603Z,0
2016-09-26T01:44:36.583Z,0
2016-09-26T01:45:36.562Z,0
2016-09-26T01:46:36.539Z,0
2016-09-26T01:47:36.518Z,0
2016-09-26T01:48:36.492Z,0
2016-09-26T01:49:36.490Z,0
2016-09-26T01:50:36.450Z,0
2016-09-26T01:51:36.434Z,0
2016-09-26T01:52:36.414Z,0
2016-09-26T01:53:36.387Z,0
2016-09-26T01:54:36.363Z,0
2016-09-26T01:55:36.345Z,0
2016-09-26T01:56:36.314Z,0
2016-09-26T01:57:36.299Z,0
2016-09-26T01:58:36.278Z,0
2016-09-26T01:59:36.250Z,0
2016-09-26T02:00:36.237Z,0
2016-09-26T02:01:36.205Z,0
2016-09-26T02:02:36.193Z,0
2016-09-26T02:03:36.169Z,0
2016-09-26T02:04:36.144Z,0
2016-09-26T02:05:36.122Z,0
2016-09-26T02:06:36.399Z,0
2016-09-26T02:07:36.084Z,0
2016-09-26T02:08:36.062Z,0
2016-09-26T02:09:36.038Z,0
2016-09-26T02:10:36.014Z,0
2016-09-26T02:11:35.994Z,0
2016-09-26T02:12:35.977Z,0
2016-09-26T02:13:35.948Z,0
2016-09-26T02:14:35.923Z,0
2016-09-26T02:15:35.918Z,0
2016-09-26T02:16:35.877Z,0
2016-09-26T02:17:35.876Z,0
2016-09-26T02:18:35.840Z,0
2016-09-26T02:19:35.815Z,0
2016-09-26T02:20:35.796Z,0
2016-09-26T02:21:35.773Z,0
2016-09-26T02:22:35.753Z,0
2016-09-26T02:23:35.730Z,0
2016-09-26T02:24:35.703Z,0
2016-09-26T02:25:35.685Z,0
2016-09-26T02:26:35.665Z,0
2016-09-26T02:27:35.641Z,0
2016-09-26T02:28:35.620Z,0
2016-09-26T02:29:35.614Z,0
2016-09-26T02:30:35.581Z,0
2016-09-26T02:31:35.555Z,0
2016-09-26T02:32:35.535Z,0
2016-09-26T02:33:35.518Z,0
2016-09-26T02:34:35.488Z,0
2016-09-26T02:35:35.470Z,0
2016-09-26T02:36:35.444Z,0
2016-09-26T02:37:35.419Z,0
2016-09-26T02:38:35.404Z,0
2016-09-26T02:39:35.393Z,0
2016-09-26T02:40:35.358Z,0
2016-09-26T02:41:35.337Z,0
2016-09-26T02:42:35.311Z,0
2016-09-26T02:43:35.294Z,0
2016-09-26T02:44:35.269Z,0
2016-09-26T02:45:35.250Z,0
2016-09-26T02:46:35.236Z,0
2016-09-26T02:47:35.214Z,0
2016-09-26T02:48:35.192Z,0
2016-09-26T02:49:35.175Z,0
2016-09-26T02:50:35.139Z,0
2016-09-26T02:51:35.116Z,0
2016-09-26T02:52:35.106Z,0
2016-09-26T02:53:35.078Z,0
2016-09-26T02:54:35.057Z,0
2016-09-26T02:55:35.027Z,0
2016-09-26T02:56:35.013Z,0
2016-09-26T02:57:34.991Z,0
2016-09-26T02:58:34.962Z,0
2016-09-26T02:59:34.945Z,0
2016-09-26T03:00:34.928Z,0
2016-09-26T03:01:34.903Z,0
2016-09-26T03:02:34.880Z,0
2016-09-26T03:03:34.863Z,0
2016-09-26T03:04:34.839Z,0
2016-09-26T03:05:34.812Z,0
2016-09-26T03:06:34.786Z,0
2016-09-26T03:07:34.775Z,0
2016-09-26T03:08:34.746Z,0
2016-09-26T03:09:34.726Z,0
2016-09-26T03:10:34.712Z,0
2016-09-26T03:11:34.687Z,0
2016-09-26T03:12:34.664Z,0
2016-09-26T03:13:34.937Z,0
2016-09-26T03:14:34.616Z,0
2016-09-26T03:15:34.595Z,0
2016-09-26T03:16:34.575Z,0
2016-09-26T03:17:34.550Z,0
2016-09-26T03:18:34.531Z,0
2016-09-26T03:19:34.507Z,0
2016-09-26T03:20:34.492Z,0
2016-09-26T03:21:34.470Z,0
2016-09-26T03:22:34.438Z,0
2016-09-26T03:23:34.434Z,0
2016-09-26T03:24:34.401Z,0
2016-09-26T03:25:34.378Z,0
2016-09-26T03:26:34.360Z,0
2016-09-26T03:27:34.333Z,0
2016-09-26T03:28:34.315Z,0
2016-09-26T03:29:34.299Z,0
2016-09-26T03:30:34.266Z,0
2016-09-26T03:31:34.248Z,0
2016-09-26T03:32:34.231Z,0
2016-09-26T03:33:34.203Z,0
2016-09-26T03:34:34.501Z,0
2016-09-26T03:35:34.158Z,0
2016-09-26T03:36:34.148Z,0
2016-09-26T03:37:34.111Z,0
2016-09-26T03:38:34.386Z,0
2016-09-26T03:39:34.072Z,0
2016-09-26T03:40:34.348Z,0
2016-09-26T03:41:34.030Z,0
2016-09-26T03:42:34.014Z,0
2016-09-26T03:43:33.983Z,0
2016-09-26T03:44:33.965Z,0
2016-09-26T03:45:33.953Z,0
2016-09-26T03:46:33.915Z,0
2016-09-26T03:47:33.893Z,0
2016-09-26T03:48:33.879Z,0
2016-09-26T03:49:34.145Z,0
2016-09-26T03:50:34.129Z,0
2016-09-26T03:51:33.809Z,0
2016-09-26T03:52:33.784Z,0
2016-09-26T03:53:33.766Z,0
2016-09-26T03:54:33.747Z,0
2016-09-26T03:55:34.018Z,0
2016-09-26T03:56:33.702Z,0
2016-09-26T03:57:33.682Z,0
2016-09-26T03:58:33.654Z,0
2016-09-26T03:59:33.935Z,0
2016-09-26T04:00:33.907Z,0
2016-09-26T04:01:33.586Z,0
2016-09-26T04:02:33.569Z,0
2016-09-26T04:03:33.544Z,0
2016-09-26T04:04:33.522Z,0
2016-09-26T04:05:33.502Z,0
2016-09-26T04:06:33.476Z,0
2016-09-26T04:07:33.752Z,0
2016-09-26T04:08:33.449Z,0
2016-09-26T04:09:33.411Z,0
2016-09-26T04:10:33.396Z,0
2016-09-26T04:11:33.673Z,0
2016-09-26T04:12:33.352Z,0
2016-09-26T04:13:33.628Z,0
2016-09-26T04:14:33.309Z,0
2016-09-26T04:15:33.280Z,0
2016-09-26T04:16:33.278Z,0
2016-09-26T04:17:33.235Z,0
2016-09-26T04:18:33.214Z,0
2016-09-26T04:19:33.201Z,0
2016-09-26T04:20:33.171Z,0
2016-09-26T04:21:33.160Z,0
2016-09-26T04:22:33.131Z,0
2016-09-26T04:23:33.124Z,0
2016-09-26T04:24:33.079Z,0
2016-09-26T04:25:33.063Z,0
2016-09-26T04:26:33.337Z,0
2016-09-26T04:27:33.022Z,0
2016-09-26T04:28:32.998Z,0
2016-09-26T04:29:33.271Z,0
2016-09-26T04:30:32.948Z,0
2016-09-26T04:31:32.933Z,0
2016-09-26T04:32:33.205Z,0
2016-09-26T04:33:32.898Z,0
2016-09-26T04:34:32.861Z,0
2016-09-26T04:35:32.836Z,0
2016-09-26T04:36:32.825Z,0
2016-09-26T04:37:32.801Z,0
2016-09-26T04:38:32.765Z,0
2016-09-26T04:39:32.759Z,0
2016-09-26T04:40:32.725Z,0
2016-09-26T04:41:32.697Z,0
2016-09-26T04:42:32.691Z,0
2016-09-26T04:43:32.677Z,0
2016-09-26T04:44:32.644Z,0
2016-09-26T04:45:32.912Z,0
2016-09-26T04:46:32.596Z,0
2016-09-26T04:47:32.594Z,0
2016-09-26T04:48:32.545Z,0
2016-09-26T04:49:32.823Z,0
2016-09-26T04:50:32.512Z,0
2016-09-26T04:51:32.493Z,0
2016-09-26T04:52:32.451Z,0
2016-09-26T04:53:32.432Z,0
2016-09-26T04:54:32.406Z,0
2016-09-26T04:55:32.384Z,0
2016-09-26T04:56:32.673Z,0
2016-09-26T04:57:32.341Z,0
2016-09-26T04:58:32.310Z,0
2016-09-26T04:59:32.306Z,0
2016-09-26T05:00:32.268Z,0
2016-09-26T05:01:32.245Z,0
2016-09-26T05:02:32.223Z,0
2016-09-26T05:03:32.201Z,0
2016-09-26T05:04:32.179Z,0
2016-09-26T05:05:32.157Z,0
2016-09-26T05:06:32.136Z,0
2016-09-26T05:07:32.111Z,0
2016-09-26T05:08:32.091Z,0
2016-09-26T05:09:32.066Z,0
2016-09-26T05:10:32.045Z,0
2016-09-26T05:11:32.018Z,0
2016-09-26T05:12:31.993Z,5
2016-09-26T05:13:31.976Z,5
2016-09-26T05:14:31.949Z,5
2016-09-26T05:15:31.924Z,5
2016-09-26T05:16:31.908Z,5
2016-09-26T05:17:31.879Z,10
2016-09-26T05:18:31.851Z,10
2016-09-26T05:19:31.843Z,10
2016-09-26T05:20:31.814Z,10
2016-09-26T05:21:31.789Z,15
2016-09-26T05:22:31.781Z,15
2016-09-26T05:23:31.743Z,15
2016-09-26T05:24:31.723Z,20
2016-09-26T05:25:31.697Z,20
2016-09-26T05:26:31.675Z,25
2016-09-26T05:27:31.655Z,25
2016-09-26T05:28:31.634Z,30
2016-09-26T05:29:31.611Z,30
2016-09-26T05:30:31.584Z,30
2016-09-26T05:31:31.553Z,35
2016-09-26T05:32:31.552Z,35
2016-09-26T05:33:31.508Z,40
2016-09-26T05:34:31.484Z,40
2016-09-26T05:35:31.484Z,45
2016-09-26T05:36:31.442Z,50
2016-09-26T05:37:31.410Z,50
2016-09-26T05:38:31.395Z,55
2016-09-26T05:39:31.666Z,55
2016-09-26T05:40:31.347Z,60
2016-09-26T05:41:31.325Z,60
2016-09-26T05:42:31.302Z,65
2016-09-26T05:43:31.278Z,65
2016-09-26T05:44:31.254Z,70
2016-09-26T05:45:31.226Z,75
2016-09-26T05:46:31.220Z,75
2016-09-26T05:47:31.186Z,80
2016-09-26T05:48:31.161Z,80
2016-09-26T05:49:31.133Z,85
2016-09-26T05:50:31.110Z,90
2016-09-26T05:51:31.089Z,95
2016-09-26T05:52:31.068Z,95
2016-09-26T05:53:31.040Z,100
2016-09-26T05:54:31.015Z,105
2016-09-26T05:55:30.992Z,110
2016-09-26T05:56:30.968Z,115
2016-09-26T05:57:30.942Z,115
2016-09-26T05:58:30.915Z,120
2016-09-26T05:59:30.896Z,125
2016-09-26T06:00:30.879Z,125
2016-09-26T06:01:30.848Z,130
2016-09-26T06:02:30.824Z,135
2016-09-26T06:03:31.116Z,135
2016-09-26T06:04:30.778Z,140
2016-09-26T06:05:31.072Z,145
2016-09-26T06:06:30.740Z,145
2016-09-26T06:07:30.729Z,150
2016-09-26T06:08:30.691Z,155
2016-09-26T06:09:30.669Z,155
2016-09-26T06:10:30.650Z,155
2016-09-26T06:11:30.618Z,155
2016-09-26T06:12:30.593Z,160
2016-09-26T06:13:30.574Z,160
2016-09-26T06:14:30.556Z,165
2016-09-26T06:15:30.525Z,165
2016-09-26T06:16:30.510Z,170
2016-09-26T06:17:30.484Z,175
2016-09-26T06:18:30.455Z,175
2016-09-26T06:19:30.426Z,180
2016-09-26T06:20:30.409Z,180
2016-09-26T06:21:30.379Z,180
2016-09-26T06:22:30.357Z,185
2016-09-26T06:23:30.343Z,185
2016-09-26T06:24:30.307Z,195
2016-09-26T06:25:30.289Z,190
2016-09-26T06:26:30.265Z,195
2016-09-26T06:27:30.236Z,195
2016-09-26T06:28:30.220Z,200
2016-09-26T06:29:30.195Z,200
2016-09-26T06:30:30.167Z,205
2016-09-26T06:31:30.154Z,210
2016-09-26T06:32:30.131Z,210
2016-09-26T06:33:30.112Z,215
2016-09-26T06:34:30.079Z,215
2016-09-26T06:35:30.047Z,220
2016-09-26T06:36:30.032Z,220
2016-09-26T06:37:30.005Z,225
2016-09-26T06:38:29.985Z,230
2016-09-26T06:39:29.995Z,230
2016-09-26T06:40:29.943Z,230
2016-09-26T06:41:29.913Z,235
2016-09-26T06:42:29.893Z,235
2016-09-26T06:43:29.870Z,240
2016-09-26T06:44:29.846Z,240
2016-09-26T06:45:29.828Z,240
2016-09-26T06:46:29.793Z,245
2016-09-26T06:47:29.781Z,245
2016-09-26T06:48:29.767Z,250
2016-09-26T06:49:29.728Z,250
2016-09-26T06:50:29.703Z,250
2016-09-26T06:51:29.690Z,255
2016-09-26T06:52:29.657Z,255
2016-09-26T06:53:29.637Z,255
2016-09-26T06:54:29.611Z,260
2016-09-26T06:55:29.589Z,260
2016-09-26T06:56:29.563Z,260
2016-09-26T06:57:29.544Z,265
2016-09-26T06:58:29.524Z,265
2016-09-26T06:59:29.502Z,265
2016-09-26T07:00:29.474Z,270
2016-09-26T07:01:29.442Z,270
2016-09-26T07:02:29.444Z,270
2016-09-26T07:03:29.403Z,270
2016-09-26T07:04:29.380Z,275
2016-09-26T07:05:29.359Z,275
2016-09-26T07:06:29.333Z,275
2016-09-26T07:07:29.317Z,280
2016-09-26T07:08:29.286Z,280
2016-09-26T07:09:29.264Z,280
2016-09-26T07:10:29.238Z,285
2016-09-26T07:11:29.222Z,285
2016-09-26T07:12:29.206Z,285
2016-09-26T07:13:29.172Z,285
2016-09-26T07:14:29.147Z,290
2016-09-26T07:15:29.127Z,290
2016-09-26T07:16:29.107Z,290
2016-09-26T07:17:29.084Z,290
2016-09-26T07:18:29.061Z,295
2016-09-26T07:19:29.049Z,295
2016-09-26T07:20:29.009Z,295
2016-09-26T07:21:28.984Z,295
2016-09-26T07:22:28.968Z,300
2016-09-26T07:23:28.941Z,300
2016-09-26T07:24:28.918Z,300
2016-09-26T07:25:28.897Z,300
2016-09-26T07:26:28.867Z,300
2016-09-26T07:27:28.862Z,305
2016-09-26T07:28:28.838Z,305
2016-09-26T07:29:28.802Z,305
2016-09-26T07:30:28.784Z,305
2016-09-26T07:31:28.769Z,310
2016-09-26T07:32:28.811Z,310
2016-09-26T07:33:28.711Z,310
2016-09-26T07:34:28.689Z,315
2016-09-26T07:35:28.666Z,315
2016-09-26T07:36:28.643Z,315
2016-09-26T07:37:28.624Z,310
2016-09-26T07:38:28.601Z,315
2016-09-26T07:39:28.880Z,315
2016-09-26T07:40:28.555Z,315
2016-09-26T07:41:28.530Z,315
2016-09-26T07:42:28.510Z,315
2016-09-26T07:43:28.489Z,315
2016-09-26T07:44:28.462Z,320
2016-09-26T07:45:28.450Z,320
2016-09-26T07:46:28.420Z,320
2016-09-26T07:47:28.406Z,320
2016-09-26T07:48:28.376Z,325
2016-09-26T07:49:28.352Z,325
2016-09-26T07:50:28.333Z,320
2016-09-26T07:51:28.607Z,320
2016-09-26T07:52:28.289Z,325
2016-09-26T07:53:28.267Z,325
2016-09-26T07:54:28.235Z,325
2016-09-26T07:55:28.216Z,325
2016-09-26T07:56:28.202Z,325
2016-09-26T07:57:28.177Z,330
2016-09-26T07:58:28.152Z,325
2016-09-26T07:59:28.138Z,330
2016-09-26T08:00:28.113Z,330
2016-09-26T08:01:28.106Z,330
2016-09-26T08:02:28.503Z,335
2016-09-26T08:03:28.044Z,330
2016-09-26T08:04:28.052Z,335
2016-09-26T08:05:27.992Z,330
2016-09-26T08:06:27.982Z,330
2016-09-26T08:07:27.949Z,335
2016-09-26T08:08:27.929Z,335
2016-09-26T08:09:27.910Z,340
2016-09-26T08:10:27.896Z,335
2016-09-26T08:11:27.872Z,335
2016-09-26T08:12:27.833Z,335
2016-09-26T08:13:27.813Z,340
2016-09-26T08:14:27.797Z,340
2016-09-26T08:15:27.769Z,340
2016-09-26T08:16:27.750Z,340
2016-09-26T08:17:27.734Z,340
2016-09-26T08:18:28.013Z,340
2016-09-26T08:19:27.691Z,340
2016-09-26T08:20:27.953Z,340
2016-09-26T08:21:27.650Z,340
2016-09-26T08:22:27.616Z,335
2016-09-26T08:23:27.592Z,335
2016-09-26T08:24:27.571Z,345
2016-09-26T08:25:27.549Z,345
2016-09-26T08:26:27.524Z,345
2016-09-26T08:27:27.510Z,345
2016-09-26T08:28:27.489Z,345
2016-09-26T08:29:27.479Z,345
2016-09-26T08:30:27.740Z,345
2016-09-26T08:31:27.420Z,345
2016-09-26T08:32:27.395Z,350
2016-09-26T08:33:27.379Z,350
2016-09-26T08:34:27.362Z,350
2016-09-26T08:35:27.327Z,350
2016-09-26T08:36:27.317Z,350
2016-09-26T08:37:27.292Z,355
2016-09-26T08:38:27.269Z,350
2016-09-26T08:39:27.239Z,350
2016-09-26T08:40:27.224Z,350
2016-09-26T08:41:27.203Z,355
2016-09-26T08:42:27.178Z,355
2016-09-26T08:43:27.157Z,355
2016-09-26T08:44:27.133Z,355
2016-09-26T08:45:27.116Z,355
2016-09-26T08:46:27.279Z,355
2016-09-26T08:47:27.071Z,355
2016-09-26T08:48:27.200Z,355
2016-09-26T08:49:27.035Z,355
2016-09-26T08:50:27.002Z,355
2016-09-26T08:51:27.286Z,355
2016-09-26T08:52:27.264Z,355
2016-09-26T08:53:26.948Z,360
2016-09-26T08:54:26.923Z,360
2016-09-26T08:55:26.900Z,360
2016-09-26T08:56:26.892Z,360
2016-09-26T08:57:26.859Z,360
2016-09-26T08:58:27.737Z,360
2016-09-26T08:59:26.816Z,360
2016-09-26T09:00:27.092Z,360
2016-09-26T09:01:26.770Z,365
2016-09-26T09:02:26.754Z,365
2016-09-26T09:03:26.730Z,365
2016-09-26T09:04:26.716Z,365
2016-09-26T09:05:26.998Z,365
2016-09-26T09:06:26.687Z,365
2016-09-26T09:07:26.671Z,365
2016-09-26T09:08:26.924Z,370
2016-09-26T09:09:26.603Z,370
2016-09-26T09:10:26.582Z,370
2016-09-26T09:11:26.561Z,370
2016-09-26T09:12:26.559Z,370
2016-09-26T09:13:26.886Z,370
2016-09-26T09:14:26.533Z,370
2016-09-26T09:15:26.478Z,370
2016-09-26T09:16:26.458Z,370
2016-09-26T09:17:26.433Z,370
2016-09-26T09:18:26.444Z,375
2016-09-26T09:19:26.392Z,370
2016-09-26T09:20:26.375Z,370
2016-09-26T09:21:26.353Z,370
2016-09-26T09:22:26.333Z,370
2016-09-26T09:23:26.608Z,375
2016-09-26T09:24:26.610Z,375
2016-09-26T09:25:26.274Z,375
2016-09-26T09:26:26.247Z,375
2016-09-26T09:27:26.225Z,380
2016-09-26T09:28:26.204Z,380
2016-09-26T09:29:26.206Z,380
2016-09-26T09:30:26.165Z,385
2016-09-26T09:31:26.143Z,380
2016-09-26T09:32:26.128Z,380
2016-09-26T09:33:26.107Z,380
2016-09-26T09:34:26.081Z,385
2016-09-26T09:35:26.059Z,385
2016-09-26T09:36:26.043Z,390
2016-09-26T09:37:26.029Z,390
2016-09-26T09:38:26.004Z,395
2016-09-26T09:39:25.983Z,395
2016-09-26T09:40:25.966Z,405
2016-09-26T09:41:25.943Z,410
2016-09-26T09:42:25.923Z,425
2016-09-26T09:43:25.909Z,435
2016-09-26T09:44:25.893Z,440
2016-09-26T09:45:25.860Z,445
2016-09-26T09:46:25.840Z,445
2016-09-26T09:47:26.116Z,440
2016-09-26T09:48:25.797Z,435
2016-09-26T09:49:25.776Z,440
2016-09-26T09:50:25.759Z,450
2016-09-26T09:51:25.736Z,460
2016-09-26T09:52:25.715Z,470
2016-09-26T09:53:25.695Z,480
2016-09-26T09:54:25.676Z,495
2016-09-26T09:55:25.656Z,515
2016-09-26T09:56:25.637Z,535
2016-09-26T09:57:25.615Z,540
2016-09-26T09:58:25.593Z,550
2016-09-26T09:59:25.587Z,555
2016-09-26T10:00:25.558Z,565
2016-09-26T10:01:25.830Z,575
2016-09-26T10:02:25.819Z,585
2016-09-26T10:03:25.497Z,600
2016-09-26T10:04:25.478Z,600
2016-09-26T10:05:25.475Z,595
2016-09-26T10:06:25.442Z,585
2016-09-26T10:07:25.428Z,575
2016-09-26T10:08:25.716Z,575
2016-09-26T10:09:26.007Z,570
2016-09-26T10:10:25.367Z,575
2016-09-26T10:11:25.652Z,585
2016-09-26T10:12:25.640Z,605
2016-09-26T10:13:25.335Z,615
2016-09-26T10:14:25.296Z,625
2016-09-26T10:15:25.282Z,620
2016-09-26T10:16:25.549Z,635
2016-09-26T10:17:25.239Z,655
2016-09-26T10:18:25.219Z,660
2016-09-26T10:19:25.195Z,660
2016-09-26T10:20:25.182Z,655
2016-09-26T10:21:25.165Z,660
2016-09-26T10:22:25.144Z,675
2016-09-26T10:23:25.133Z,695
2016-09-26T10:24:25.107Z,705
2016-09-26T10:25:25.093Z,710
2016-09-26T10:26:25.083Z,705
2016-09-26T10:27:25.049Z,680
2016-09-26T10:28:25.041Z,665
2016-09-26T10:29:25.017Z,660
2016-09-26T10:30:25.005Z,675
2016-09-26T10:31:24.998Z,680
2016-09-26T10:32:24.971Z,690
2016-09-26T10:33:24.949Z,655
2016-09-26T10:34:24.939Z,675
2016-09-26T10:35:25.211Z,690
2016-09-26T10:36:24.900Z,705
2016-09-26T10:37:25.196Z,730
2016-09-26T10:38:25.167Z,770
2016-09-26T10:39:25.149Z,770
2016-09-26T10:40:24.841Z,750
2016-09-26T10:41:24.818Z,780
2016-09-26T10:42:24.807Z,795
2016-09-26T10:43:24.784Z,810
2016-09-26T10:44:24.767Z,815
2016-09-26T10:45:24.747Z,825
2016-09-26T10:46:24.742Z,835
2016-09-26T10:47:24.717Z,820
2016-09-26T10:48:24.701Z,810
2016-09-26T10:49:24.688Z,840
2016-09-26T10:50:24.667Z,805
2016-09-26T10:51:24.658Z,790
2016-09-26T10:52:24.640Z,790
2016-09-26T10:53:24.618Z,745
2016-09-26T10:54:24.611Z,665
2016-09-26T10:55:24.879Z,605
2016-09-26T10:56:24.874Z,585
2016-09-26T10:57:24.556Z,620
2016-09-26T10:58:24.538Z,640
2016-09-26T10:59:24.527Z,680
2016-09-26T11:00:24.512Z,690
2016-09-26T11:01:24.492Z,640
2016-09-26T11:02:24.550Z,630
2016-09-26T11:03:24.458Z,665
2016-09-26T11:04:24.446Z,675
2016-09-26T11:05:24.424Z,700
2016-09-26T11:06:24.411Z,715
2016-09-26T11:07:24.395Z,695
2016-09-26T11:08:24.391Z,665
2016-09-26T11:09:24.361Z,635
2016-09-26T11:10:24.353Z,600
2016-09-26T11:11:24.337Z,600
2016-09-26T11:12:24.325Z,615
2016-09-26T11:13:24.305Z,625
2016-09-26T11:14:24.284Z,660
2016-09-26T11:15:24.273Z,660
2016-09-26T11:16:24.256Z,635
2016-09-26T11:17:24.239Z,615
2016-09-26T11:18:24.231Z,610
2016-09-26T11:19:24.209Z,620
2016-09-26T11:20:24.188Z,630
2016-09-26T11:21:24.326Z,595
2016-09-26T11:22:24.161Z,605
2016-09-26T11:23:24.138Z,605
2016-09-26T11:24:24.129Z,610
2016-09-26T11:25:24.109Z,615
2016-09-26T11:26:24.097Z,630
2016-09-26T11:27:24.078Z,595
2016-09-26T11:28:24.065Z,550
2016-09-26T11:29:24.051Z,535
2016-09-26T11:30:24.028Z,520
2016-09-26T11:31:24.015Z,525
2016-09-26T11:32:24.000Z,545
2016-09-26T11:33:23.984Z,540
2016-09-26T11:34:23.968Z,540
2016-09-26T11:35:23.945Z,500
2016-09-26T11:36:23.928Z,480
2016-09-26T11:37:23.908Z,475
2016-09-26T11:38:23.893Z,470
2016-09-26T11:39:23.890Z,460
2016-09-26T11:40:23.877Z,470
2016-09-26T11:41:23.844Z,490
2016-09-26T11:42:23.826Z,495
2016-09-26T11:43:23.812Z,485
2016-09-26T11:44:23.796Z,475
2016-09-26T11:45:23.774Z,490
2016-09-26T11:46:23.755Z,505
2016-09-26T11:47:23.759Z,515
2016-09-26T11:48:23.721Z,510
2016-09-26T11:49:23.705Z,490
2016-09-26T11:50:23.692Z,490
2016-09-26T11:51:23.669Z,500
2016-09-26T11:52:23.646Z,510
2016-09-26T11:53:23.630Z,510
2016-09-26T11:54:23.615Z,490
2016-09-26T11:55:23.896Z,495
2016-09-26T11:56:23.890Z,510
2016-09-26T11:57:23.564Z,500
2016-09-26T11:58:23.543Z,490
2016-09-26T11:59:23.840Z,495
2016-09-26T12:00:24.074Z,505
2016-09-26T12:01:23.803Z,510
2016-09-26T12:02:23.777Z,500
2016-09-26T12:03:23.464Z,495
2016-09-26T12:04:23.442Z,500
2016-09-26T12:05:23.949Z,500
2016-09-26T12:06:23.406Z,505
2016-09-26T12:07:23.462Z,505
2016-09-26T12:08:23.454Z,490
2016-09-26T12:09:23.761Z,500
2016-09-26T12:10:24.701Z,500
2016-09-26T12:11:23.498Z,500
2016-09-26T12:12:23.318Z,495
2016-09-26T12:13:23.287Z,490
2016-09-26T12:14:23.273Z,505
2016-09-26T12:15:23.252Z,525
2016-09-26T12:16:23.236Z,505
2016-09-26T12:17:23.217Z,505
2016-09-26T12:18:23.191Z,505
2016-09-26T12:19:23.187Z,500
2016-09-26T12:20:23.514Z,495
2016-09-26T12:21:23.149Z,495
2016-09-26T12:22:23.136Z,495
2016-09-26T12:23:23.112Z,495
2016-09-26T12:24:23.096Z,495
2016-09-26T12:25:23.375Z,490
2016-09-26T12:26:23.078Z,495
2016-09-26T12:27:23.038Z,500
2016-09-26T12:28:23.035Z,500
2016-09-26T12:29:23.013Z,500
2016-09-26T12:30:22.998Z,490
2016-09-26T12:31:22.975Z,485
2016-09-26T12:32:22.953Z,480
2016-09-26T12:33:23.248Z,480
2016-09-26T12:34:22.921Z,480
2016-09-26T12:35:22.905Z,475
2016-09-26T12:36:22.890Z,480
2016-09-26T12:37:23.204Z,480
2016-09-26T12:38:23.457Z,485
2016-09-26T12:39:22.842Z,495
2016-09-26T12:40:22.817Z,505
2016-09-26T12:41:22.805Z,525
2016-09-26T12:42:22.789Z,535
2016-09-26T12:43:22.766Z,550
2016-09-26T12:44:22.755Z,560
2016-09-26T12:45:22.745Z,565
2016-09-26T12:46:22.721Z,565
2016-09-26T12:47:22.700Z,570
2016-09-26T12:48:22.690Z,565
2016-09-26T12:49:22.687Z,560
2016-09-26T12:50:22.653Z,565
2016-09-26T12:51:22.799Z,570
2016-09-26T12:52:22.620Z,570
2016-09-26T12:53:22.611Z,565
2016-09-26T12:54:22.589Z,550
2016-09-26T12:55:22.567Z,535
2016-09-26T12:56:22.548Z,520
2016-09-26T12:57:22.554Z,505
2016-09-26T12:58:22.827Z,495
2016-09-26T12:59:22.498Z,485
2016-09-26T13:00:22.488Z,500
2016-09-26T13:01:22.561Z,480
2016-09-26T13:02:22.453Z,485
2016-09-26T13:03:22.440Z,490
2016-09-26T13:04:22.419Z,485
2016-09-26T13:05:22.405Z,495
2016-09-26T13:06:22.690Z,505
2016-09-26T13:07:22.369Z,540
2016-09-26T13:08:22.362Z,570
2016-09-26T13:09:22.333Z,590
2016-09-26T13:10:22.322Z,590
2016-09-26T13:11:22.308Z,575
2016-09-26T13:12:22.287Z,575
2016-09-26T13:13:22.287Z,605
2016-09-26T13:14:22.277Z,610
2016-09-26T13:15:22.237Z,590
2016-09-26T13:16:22.224Z,560
2016-09-26T13:17:22.205Z,550
2016-09-26T13:18:22.196Z,560
2016-09-26T13:19:22.174Z,580
2016-09-26T13:20:22.154Z,590
2016-09-26T13:21:22.140Z,610
2016-09-26T13:22:22.130Z,615
2016-09-26T13:23:22.105Z,630
2016-09-26T13:24:22.099Z,625
2016-09-26T13:25:22.076Z,615
2016-09-26T13:26:22.057Z,605
2016-09-26T13:27:22.043Z,600
2016-09-26T13:28:22.024Z,590
2016-09-26T13:29:22.019Z,585
2016-09-26T13:30:21.993Z,605
2016-09-26T13:31:21.974Z,615
2016-09-26T13:32:21.967Z,665
2016-09-26T13:33:21.946Z,695
2016-09-26T13:34:21.936Z,695
2016-09-26T13:35:21.916Z,690
2016-09-26T13:36:21.896Z,660
2016-09-26T13:37:21.881Z,610
2016-09-26T13:38:22.006Z,600
2016-09-26T13:39:21.854Z,550
2016-09-26T13:40:21.840Z,545
2016-09-26T13:41:21.821Z,525
2016-09-26T13:42:21.800Z,505
2016-09-26T13:43:21.789Z,490
2016-09-26T13:44:21.840Z,475
2016-09-26T13:45:21.754Z,465
2016-09-26T13:46:21.753Z,465
2016-09-26T13:47:21.725Z,485
2016-09-26T13:48:21.783Z,540
2016-09-26T13:49:21.695Z,555
2016-09-26T13:50:21.674Z,570
2016-09-26T13:51:21.662Z,565
2016-09-26T13:52:21.645Z,565
2016-09-26T13:53:21.626Z,570
2016-09-26T13:54:21.608Z,545
2016-09-26T13:55:21.597Z,540
2016-09-26T13:56:21.580Z,540
2016-09-26T13:57:21.579Z,540
2016-09-26T13:58:21.551Z,525
2016-09-26T13:59:21.526Z,515
2016-09-26T14:00:21.511Z,510
2016-09-26T14:01:21.498Z,525
2016-09-26T14:02:21.475Z,540
2016-09-26T14:03:21.465Z,545
2016-09-26T14:04:21.452Z,555
2016-09-26T14:05:21.428Z,510
2016-09-26T14:06:21.420Z,510
2016-09-26T14:07:21.402Z,505
2016-09-26T14:08:21.391Z,535
2016-09-26T14:09:21.363Z,520